createdAt,value
2022-11-18T00:01:14.178Z,15.23
2022-11-18T00:03:41.628Z,15.24
2022-11-18T00:06:11.464Z,15.23
2022-11-18T00:08:38.197Z,15.22
2022-11-18T00:11:34.179Z,15.19
2022-11-18T00:14:19.058Z,15.20
2022-11-18T00:16:57.159Z,15.17
2022-11-18T00:19:33.134Z,15.16
2022-11-18T00:22:01.585Z,15.17
2022-11-18T00:24:28.653Z,15.15
2022-11-18T00:26:55.721Z,15.15
2022-11-18T00:29:23.552Z,15.14
2022-11-18T00:31:50.322Z,15.14
2022-11-18T00:34:18.167Z,15.13
2022-11-18T00:36:45.838Z,15.11
2022-11-18T00:39:14.498Z,15.11
2022-11-18T00:42:00.041Z,15.10
2022-11-18T00:44:27.040Z,15.09
2022-11-18T00:46:53.847Z,15.07
2022-11-18T00:49:20.651Z,15.07
2022-11-18T00:51:47.295Z,15.06
2022-11-18T00:54:14.009Z,15.05
2022-11-18T00:56:40.707Z,15.04
2022-11-18T00:59:07.567Z,15.01
2022-11-18T01:01:34.376Z,14.99
2022-11-18T01:04:01.228Z,15.00
2022-11-18T01:06:28.235Z,15.01
2022-11-18T01:08:55.006Z,15.00
2022-11-18T01:11:40.460Z,14.98
2022-11-18T01:14:07.235Z,14.97
2022-11-18T01:16:33.867Z,14.96
2022-11-18T01:19:00.842Z,14.96
2022-11-18T01:21:29.050Z,14.94
2022-11-18T01:23:55.896Z,14.95
2022-11-18T01:26:22.607Z,14.96
2022-11-18T01:28:49.457Z,14.95
2022-11-18T01:31:18.668Z,14.95
2022-11-18T01:33:46.682Z,14.94
2022-11-18T01:36:18.347Z,14.93
2022-11-18T01:38:45.111Z,14.93
2022-11-18T01:41:12.241Z,14.91
2022-11-18T01:43:52.839Z,14.88
2022-11-18T01:46:19.996Z,14.96
2022-11-18T01:48:49.275Z,14.90
2022-11-18T01:51:17.980Z,14.87
2022-11-18T01:53:56.245Z,14.86
2022-11-18T01:56:25.801Z,14.85
2022-11-18T01:58:53.679Z,14.85
2022-11-18T02:01:20.543Z,14.84
2022-11-18T02:03:48.753Z,14.84
2022-11-18T02:06:16.069Z,14.83
2022-11-18T02:08:42.804Z,14.82
2022-11-18T02:11:35.099Z,14.80
2022-11-18T02:14:05.195Z,14.80
2022-11-18T02:17:17.145Z,14.82
2022-11-18T02:19:46.941Z,14.79
2022-11-18T02:22:28.695Z,14.76
2022-11-18T02:25:10.052Z,14.74
2022-11-18T02:27:54.595Z,14.72
2022-11-18T02:30:21.578Z,14.72
2022-11-18T02:32:48.200Z,14.71
2022-11-18T02:35:47.463Z,14.71
2022-11-18T02:38:23.713Z,14.70
2022-11-18T02:40:55.588Z,14.68
2022-11-18T02:43:26.880Z,14.67
2022-11-18T02:45:56.668Z,14.66
2022-11-18T02:48:25.087Z,14.65
2022-11-18T02:50:52.790Z,14.64
2022-11-18T02:53:21.382Z,14.64
2022-11-18T02:55:48.640Z,14.64
2022-11-18T02:58:18.015Z,14.62
2022-11-18T03:00:45.023Z,14.62
2022-11-18T03:03:31.296Z,14.61
2022-11-18T03:06:02.676Z,14.62
2022-11-18T03:08:35.315Z,14.60
2022-11-18T03:11:14.100Z,14.58
2022-11-18T03:13:48.401Z,14.58
2022-11-18T03:16:20.048Z,14.56
2022-11-18T03:19:10.279Z,14.56
2022-11-18T03:21:44.629Z,14.54
2022-11-18T03:24:19.024Z,14.53
2022-11-18T03:26:49.724Z,14.53
2022-11-18T03:29:27.197Z,14.54
2022-11-18T03:32:00.895Z,14.54
2022-11-18T03:34:30.850Z,14.54
2022-11-18T03:37:10.053Z,14.53
2022-11-18T03:39:46.623Z,14.52
2022-11-18T03:42:29.573Z,14.52
2022-11-18T03:45:01.655Z,14.52
2022-11-18T03:48:12.004Z,14.52
2022-11-18T03:51:02.956Z,14.50
2022-11-18T03:53:33.749Z,14.47
2022-11-18T03:56:17.722Z,14.47
2022-11-18T03:59:12.396Z,14.48
2022-11-18T04:01:58.190Z,14.48
2022-11-18T04:04:25.672Z,14.47
2022-11-18T04:07:09.943Z,14.44
2022-11-18T04:09:42.517Z,14.43
2022-11-18T04:12:13.420Z,14.44
2022-11-18T04:14:42.995Z,14.45
2022-11-18T04:17:14.920Z,14.44
2022-11-18T04:19:42.127Z,14.45
2022-11-18T04:22:09.640Z,14.44
2022-11-18T04:24:36.562Z,14.45
2022-11-18T04:27:03.664Z,14.44
2022-11-18T04:29:31.456Z,14.43
2022-11-18T04:31:59.498Z,14.44
2022-11-18T04:34:26.262Z,14.42
2022-11-18T04:36:53.197Z,14.41
2022-11-18T04:39:20.487Z,14.41
2022-11-18T04:41:56.162Z,14.41
2022-11-18T04:44:30.828Z,14.39
2022-11-18T04:47:00.980Z,14.39
2022-11-18T04:49:28.883Z,14.39
2022-11-18T04:51:56.388Z,14.37
2022-11-18T04:54:24.388Z,14.36
2022-11-18T04:56:52.828Z,14.36
2022-11-18T04:59:22.863Z,14.35
2022-11-18T05:01:50.361Z,14.35
2022-11-18T05:04:23.297Z,14.33
2022-11-18T05:06:50.757Z,14.33
2022-11-18T05:09:17.830Z,14.33
2022-11-18T05:12:03.920Z,14.33
2022-11-18T05:14:30.989Z,14.32
2022-11-18T05:16:58.972Z,14.31
2022-11-18T05:19:26.004Z,14.32
2022-11-18T05:21:53.172Z,14.31
2022-11-18T05:24:20.299Z,14.31
2022-11-18T05:26:47.019Z,14.31
2022-11-18T05:29:13.774Z,14.30
2022-11-18T05:31:40.428Z,14.31
2022-11-18T05:34:07.175Z,14.31
2022-11-18T05:36:34.024Z,14.31
2022-11-18T05:39:01.415Z,14.30
2022-11-18T05:41:46.698Z,14.30
2022-11-18T05:44:13.439Z,14.30
2022-11-18T05:46:40.213Z,14.30
2022-11-18T05:49:07.848Z,14.28
2022-11-18T05:51:35.110Z,14.30
2022-11-18T05:54:05.004Z,14.29
2022-11-18T05:56:37.153Z,14.29
2022-11-18T05:59:04.515Z,14.31
2022-11-18T06:01:57.365Z,14.30
2022-11-18T06:04:46.153Z,14.23
2022-11-18T06:07:33.505Z,13.93
2022-11-18T06:10:05.154Z,13.63
2022-11-18T06:12:37.507Z,13.33
2022-11-18T06:15:13.658Z,13.08
2022-11-18T06:18:23.501Z,12.80
2022-11-18T06:20:51.673Z,12.68
2022-11-18T06:23:18.724Z,12.47
2022-11-18T06:25:45.730Z,12.41
2022-11-18T06:28:14.593Z,12.44
2022-11-18T06:30:41.408Z,12.43
2022-11-18T06:33:08.561Z,12.45
2022-11-18T06:35:36.217Z,12.40
2022-11-18T06:38:04.184Z,12.29
2022-11-18T06:40:34.654Z,12.26
2022-11-18T06:43:27.353Z,12.21
2022-11-18T06:46:12.867Z,12.30
2022-11-18T06:48:39.644Z,12.31
2022-11-18T06:51:07.501Z,12.30
2022-11-18T06:53:35.135Z,12.33
2022-11-18T06:56:09.286Z,12.32
2022-11-18T06:58:36.523Z,12.35
2022-11-18T07:01:23.715Z,12.34
2022-11-18T07:03:51.271Z,12.34
2022-11-18T07:06:21.017Z,12.33
2022-11-18T07:08:48.551Z,12.33
2022-11-18T07:11:17.548Z,12.26
2022-11-18T07:13:45.190Z,12.26
2022-11-18T07:16:16.778Z,12.24
2022-11-18T07:18:45.000Z,12.17
2022-11-18T07:21:14.595Z,12.15
2022-11-18T07:23:42.453Z,12.22
2022-11-18T07:26:10.267Z,12.18
2022-11-18T07:28:37.447Z,12.07
2022-11-18T07:31:12.859Z,12.09
2022-11-18T07:33:40.845Z,12.17
2022-11-18T07:36:12.997Z,12.24
2022-11-18T07:38:39.999Z,12.35
2022-11-18T07:41:27.189Z,12.09
2022-11-18T07:44:00.290Z,12.10
2022-11-18T07:46:30.952Z,12.03
2022-11-18T07:48:59.967Z,12.09
2022-11-18T07:51:28.730Z,12.07
2022-11-18T07:53:55.891Z,12.10
2022-11-18T07:56:23.236Z,12.18
2022-11-18T07:58:54.640Z,12.20
2022-11-18T08:01:23.302Z,12.18
2022-11-18T08:03:50.562Z,12.17
2022-11-18T08:06:19.000Z,11.90
2022-11-18T08:08:45.935Z,11.79
2022-11-18T08:11:20.429Z,11.88
2022-11-18T08:13:49.052Z,11.80
2022-11-18T08:16:18.707Z,11.72
2022-11-18T08:18:45.961Z,11.75
2022-11-18T08:21:19.922Z,11.91
2022-11-18T08:23:55.127Z,12.16
2022-11-18T08:26:27.415Z,12.28
2022-11-18T08:28:55.644Z,12.45
2022-11-18T08:31:25.766Z,12.59
2022-11-18T08:34:00.957Z,12.73
2022-11-18T08:36:29.674Z,12.78
2022-11-18T08:38:57.298Z,12.61
2022-11-18T08:41:39.256Z,12.65
2022-11-18T08:44:07.295Z,12.78
2022-11-18T08:46:34.044Z,12.94
2022-11-18T08:49:01.023Z,12.97
2022-11-18T08:51:28.565Z,12.80
2022-11-18T08:53:55.843Z,12.79
2022-11-18T08:56:24.394Z,12.67
2022-11-18T08:58:52.193Z,12.79
2022-11-18T09:01:19.038Z,12.94
2022-11-18T09:03:45.852Z,13.00
2022-11-18T09:06:15.269Z,12.88
2022-11-18T09:08:49.590Z,12.92
2022-11-18T09:11:30.027Z,12.99
2022-11-18T09:17:09.829Z,13.01
2022-11-18T09:19:49.577Z,13.02
2022-11-18T09:22:35.292Z,13.09
2022-11-18T09:25:25.283Z,13.21
2022-11-18T09:27:59.960Z,13.25
2022-11-18T09:30:38.882Z,13.31
2022-11-18T09:33:20.504Z,13.24
2022-11-18T09:35:55.781Z,13.18
2022-11-18T09:38:29.851Z,13.11
2022-11-18T09:41:42.197Z,13.15
2022-11-18T09:44:33.647Z,13.14
2022-11-18T09:47:33.110Z,13.20
2022-11-18T09:50:48.915Z,13.21
2022-11-18T09:53:35.947Z,13.19
2022-11-18T09:56:27.903Z,13.27
2022-11-18T09:59:07.627Z,13.18
2022-11-18T10:01:45.796Z,13.14
2022-11-18T10:04:27.877Z,13.24
2022-11-18T10:07:01.689Z,13.28
2022-11-18T10:09:47.762Z,13.33
2022-11-18T10:12:45.964Z,13.31
2022-11-18T10:15:43.322Z,13.36
2022-11-18T10:18:58.319Z,13.51
2022-11-18T10:22:15.622Z,13.64
2022-11-18T10:25:16.727Z,13.91
2022-11-18T10:27:57.440Z,13.98
2022-11-18T10:30:36.406Z,14.14
2022-11-18T10:33:29.091Z,14.17
2022-11-18T10:36:40.996Z,13.98
2022-11-18T10:39:20.312Z,13.99
2022-11-18T10:42:30.831Z,13.87
2022-11-18T10:45:28.340Z,13.79
2022-11-18T10:48:19.853Z,13.70
2022-11-18T10:50:59.694Z,13.53
2022-11-18T10:53:43.741Z,13.49
2022-11-18T10:56:27.852Z,13.60
2022-11-18T10:59:21.056Z,13.62
2022-11-18T11:02:19.374Z,13.52
2022-11-18T11:04:53.138Z,13.47
2022-11-18T11:07:37.569Z,13.24
2022-11-18T11:10:14.421Z,13.11
2022-11-18T11:13:18.695Z,12.99
2022-11-18T11:15:59.563Z,12.99
2022-11-18T11:18:44.965Z,12.98
2022-11-18T11:21:20.553Z,13.12
2022-11-18T11:24:27.136Z,13.41
2022-11-18T11:30:43.608Z,13.60
2022-11-18T11:33:30.129Z,13.76
2022-11-18T11:36:11.047Z,13.85
2022-11-18T11:38:53.432Z,13.92
2022-11-18T11:41:28.759Z,14.08
2022-11-18T11:44:14.536Z,14.29
2022-11-18T11:47:16.342Z,14.52
2022-11-18T11:50:10.291Z,14.61
2022-11-18T11:52:49.813Z,14.45
2022-11-18T11:55:55.504Z,13.92
2022-11-18T11:58:48.707Z,13.81
2022-11-18T12:01:21.866Z,13.64
2022-11-18T12:04:16.965Z,13.41
2022-11-18T12:06:46.911Z,13.33
2022-11-18T12:09:21.748Z,13.50
2022-11-18T12:11:57.049Z,13.60
2022-11-18T12:14:40.009Z,13.66
2022-11-18T12:17:25.183Z,13.74
2022-11-18T12:19:51.941Z,13.68
2022-11-18T12:22:18.725Z,13.71
2022-11-18T12:24:45.502Z,13.75
2022-11-18T12:27:30.608Z,13.79
2022-11-18T12:30:01.585Z,13.76
2022-11-18T12:32:42.364Z,13.56
2022-11-18T12:35:12.338Z,13.47
2022-11-18T12:37:51.385Z,13.52
2022-11-18T12:40:48.757Z,13.58
2022-11-18T12:43:40.662Z,13.71
2022-11-18T12:46:07.457Z,13.70
2022-11-18T12:48:37.500Z,13.62
2022-11-18T12:51:16.344Z,13.56
2022-11-18T12:53:45.649Z,13.55
2022-11-18T12:56:18.597Z,13.52
2022-11-18T12:58:46.301Z,13.53
2022-11-18T13:01:15.832Z,13.33
2022-11-18T13:03:42.936Z,13.13
2022-11-18T13:06:28.869Z,13.07
2022-11-18T13:09:01.982Z,13.13
2022-11-18T13:11:46.087Z,13.17
2022-11-18T13:14:44.701Z,13.17
2022-11-18T13:17:50.430Z,13.28
2022-11-18T13:20:33.691Z,13.54
2022-11-18T13:23:21.566Z,13.69
2022-11-18T13:25:49.694Z,13.77
2022-11-18T13:28:28.480Z,13.89
2022-11-18T13:31:11.740Z,13.94
2022-11-18T13:33:39.822Z,13.88
2022-11-18T13:36:18.257Z,13.79
2022-11-18T13:39:03.632Z,13.70
2022-11-18T13:41:33.014Z,13.65
2022-11-18T13:44:25.051Z,13.59
2022-11-18T13:46:56.293Z,13.50
2022-11-18T13:49:37.551Z,13.44
2022-11-18T13:52:04.613Z,13.36
2022-11-18T13:54:31.498Z,13.31
2022-11-18T13:56:58.334Z,13.25
2022-11-18T13:59:25.166Z,13.20
2022-11-18T14:01:56.443Z,13.16
2022-11-18T14:04:26.356Z,13.07
2022-11-18T14:06:53.480Z,12.99
2022-11-18T14:09:27.136Z,13.00
2022-11-18T14:12:13.749Z,12.99
2022-11-18T14:14:42.191Z,12.91
2022-11-18T14:17:18.350Z,12.73
2022-11-18T14:19:46.325Z,12.61
2022-11-18T14:22:23.113Z,12.43
2022-11-18T14:25:28.440Z,12.31
2022-11-18T14:27:57.696Z,12.21
2022-11-18T14:30:29.485Z,12.13
2022-11-18T14:33:18.941Z,12.14
2022-11-18T14:35:51.615Z,12.15
2022-11-18T14:38:37.061Z,12.15
2022-11-18T14:41:12.319Z,12.22
2022-11-18T14:43:39.149Z,12.35
2022-11-18T14:46:21.678Z,12.41
2022-11-18T14:48:48.465Z,12.41
2022-11-18T14:51:16.311Z,12.41
2022-11-18T14:53:43.783Z,12.45
2022-11-18T14:56:36.569Z,12.21
2022-11-18T14:59:03.396Z,12.12
2022-11-18T15:01:31.016Z,12.13
2022-11-18T15:03:58.201Z,12.18
2022-11-18T15:06:24.953Z,12.23
2022-11-18T15:08:53.005Z,12.24
2022-11-18T15:11:19.905Z,12.24
2022-11-18T15:13:46.880Z,12.16
2022-11-18T15:16:19.494Z,12.16
2022-11-18T15:18:48.254Z,12.15
2022-11-18T15:21:15.682Z,12.06
2022-11-18T15:23:42.883Z,11.93
2022-11-18T15:26:20.650Z,11.86
2022-11-18T15:28:48.613Z,11.77
2022-11-18T15:31:15.913Z,11.68
2022-11-18T15:33:42.866Z,11.67
2022-11-18T15:36:15.423Z,11.65
2022-11-18T15:38:42.646Z,11.60
2022-11-18T15:41:21.114Z,11.57
2022-11-18T15:43:49.171Z,11.46
2022-11-18T15:46:17.503Z,11.41
2022-11-18T15:48:44.261Z,11.35
2022-11-18T15:51:12.451Z,11.34
2022-11-18T15:53:39.514Z,11.27
2022-11-18T15:56:25.281Z,11.19
2022-11-18T15:58:58.676Z,11.06
2022-11-18T16:01:27.256Z,10.90
2022-11-18T16:03:53.990Z,10.88
2022-11-18T16:06:21.273Z,10.86
2022-11-18T16:08:48.010Z,10.82
2022-11-18T16:11:34.831Z,10.80
2022-11-18T16:14:06.593Z,10.61
2022-11-18T16:16:33.999Z,10.56
2022-11-18T16:19:03.626Z,10.58
2022-11-18T16:21:33.349Z,10.58
2022-11-18T16:24:01.879Z,10.65
2022-11-18T16:26:30.913Z,10.83
2022-11-18T16:29:00.978Z,11.01
2022-11-18T16:31:39.845Z,11.16
2022-11-18T16:34:16.062Z,11.33
2022-11-18T16:36:45.049Z,11.46
2022-11-18T16:39:13.017Z,11.57
2022-11-18T16:41:40.771Z,11.67
2022-11-18T16:44:09.818Z,11.77
2022-11-18T16:46:39.217Z,11.87
2022-11-18T16:49:06.709Z,11.95
2022-11-18T16:51:35.014Z,12.01
2022-11-18T16:54:07.089Z,12.09
2022-11-18T16:56:35.109Z,12.15
2022-11-18T16:59:05.331Z,12.21
2022-11-18T17:01:33.208Z,12.28
2022-11-18T17:04:03.092Z,12.33
2022-11-18T17:06:31.340Z,12.38
2022-11-18T17:08:59.185Z,12.42
2022-11-18T17:11:26.483Z,12.47
2022-11-18T17:13:57.745Z,12.50
2022-11-18T17:16:26.472Z,12.53
2022-11-18T17:18:57.719Z,12.58
2022-11-18T17:21:25.241Z,12.61
2022-11-18T17:23:51.894Z,12.64
2022-11-18T17:26:21.053Z,12.66
2022-11-18T17:28:47.974Z,12.70
2022-11-18T17:31:19.642Z,12.72
2022-11-18T17:33:47.398Z,12.75
2022-11-18T17:36:16.877Z,12.76
2022-11-18T17:38:45.717Z,12.80
2022-11-18T17:41:38.543Z,12.81
2022-11-18T17:44:07.717Z,12.84
2022-11-18T17:46:38.194Z,12.87
2022-11-18T17:49:07.526Z,12.89
2022-11-18T17:51:34.480Z,12.90
2022-11-18T17:54:01.575Z,12.92
2022-11-18T17:56:28.343Z,12.93
2022-11-18T17:58:55.763Z,12.95
2022-11-18T18:01:23.126Z,12.96
2022-11-18T18:03:50.206Z,12.98
2022-11-18T18:06:17.496Z,12.99
2022-11-18T18:08:44.453Z,13.00
2022-11-18T18:11:17.346Z,13.00
2022-11-18T18:14:03.034Z,13.02
2022-11-18T18:16:32.098Z,13.03
2022-11-18T18:18:59.673Z,13.03
2022-11-18T18:21:26.678Z,13.05
2022-11-18T18:23:53.846Z,13.05
2022-11-18T18:26:20.760Z,13.07
2022-11-18T18:28:47.953Z,13.08
2022-11-18T18:31:16.694Z,13.09
2022-11-18T18:33:43.555Z,13.10
2022-11-18T18:36:18.060Z,13.09
2022-11-18T18:38:45.553Z,13.10
2022-11-18T18:41:16.437Z,13.12
2022-11-18T18:43:43.480Z,13.13
2022-11-18T18:46:33.892Z,13.12
2022-11-18T18:49:08.812Z,13.13
2022-11-18T18:51:37.280Z,13.13
2022-11-18T18:54:04.551Z,13.13
2022-11-18T18:56:32.325Z,13.13
2022-11-18T18:58:59.522Z,13.14
2022-11-18T19:01:27.687Z,13.14
2022-11-18T19:03:59.698Z,13.14
2022-11-18T19:09:16.038Z,13.17
2022-11-18T19:12:01.519Z,13.16
2022-11-18T19:14:28.684Z,13.17
2022-11-18T19:16:55.807Z,13.18
2022-11-18T19:19:44.014Z,13.18
2022-11-18T19:22:12.411Z,13.20
2022-11-18T19:24:55.041Z,13.20
2022-11-18T19:27:28.639Z,13.22
2022-11-18T19:29:56.326Z,13.22
2022-11-18T19:32:23.492Z,13.22
2022-11-18T19:34:50.275Z,13.23
2022-11-18T19:37:17.047Z,13.23
2022-11-18T19:39:43.839Z,13.25
2022-11-18T19:42:11.134Z,13.26
2022-11-18T19:44:39.068Z,13.25
2022-11-18T19:47:05.930Z,13.26
2022-11-18T19:49:32.653Z,13.28
2022-11-18T19:51:59.398Z,13.29
2022-11-18T19:54:26.100Z,13.29
2022-11-18T19:56:52.880Z,13.30
2022-11-18T19:59:19.769Z,13.30
2022-11-18T20:01:46.799Z,13.30
2022-11-18T20:04:13.499Z,13.31
2022-11-18T20:06:40.502Z,13.32
2022-11-18T20:09:08.179Z,13.32
2022-11-18T20:11:35.046Z,13.32
2022-11-18T20:14:03.304Z,13.33
2022-11-18T20:16:30.595Z,13.35
2022-11-18T20:19:07.791Z,13.34
2022-11-18T20:21:36.294Z,13.37
2022-11-18T20:24:04.634Z,13.38
2022-11-18T20:26:36.717Z,13.38
2022-11-18T20:29:04.009Z,13.41
2022-11-18T20:31:33.261Z,13.40
2022-11-18T20:34:00.825Z,13.41
2022-11-18T20:36:32.661Z,13.40
2022-11-18T20:39:02.117Z,13.41
2022-11-18T20:41:33.296Z,13.42
2022-11-18T20:44:01.267Z,13.43
2022-11-18T20:46:28.081Z,13.43
2022-11-18T20:48:55.792Z,13.43
2022-11-18T20:51:24.605Z,13.45
2022-11-18T20:53:53.073Z,13.44
2022-11-18T20:56:22.161Z,13.45
2022-11-18T20:58:49.180Z,13.47
2022-11-18T21:01:21.839Z,13.48
2022-11-18T21:03:53.510Z,13.48
2022-11-18T21:06:21.525Z,13.49
2022-11-18T21:08:48.391Z,13.46
2022-11-18T21:11:15.327Z,13.44
2022-11-18T21:14:01.523Z,13.46
2022-11-18T21:16:28.454Z,13.48
2022-11-18T21:18:55.440Z,13.50
2022-11-18T21:21:40.704Z,13.50
2022-11-18T21:24:08.335Z,13.52
2022-11-18T21:26:36.179Z,13.52
2022-11-18T21:29:05.494Z,13.52
2022-11-18T21:31:32.931Z,13.53
2022-11-18T21:33:59.928Z,13.54
2022-11-18T21:36:27.777Z,13.53
2022-11-18T21:38:55.370Z,13.54
2022-11-18T21:41:22.097Z,13.55
2022-11-18T21:44:05.983Z,13.54
2022-11-18T21:46:34.079Z,13.55
2022-11-18T21:49:00.949Z,13.55
2022-11-18T21:51:28.291Z,13.55
2022-11-18T21:53:55.533Z,13.55
2022-11-18T21:56:25.645Z,13.54
2022-11-18T21:58:52.910Z,13.55
2022-11-18T22:01:25.130Z,13.55
2022-11-18T22:03:55.690Z,13.56
2022-11-18T22:06:27.860Z,13.56
2022-11-18T22:08:58.618Z,13.56
2022-11-18T22:11:25.947Z,13.56
2022-11-18T22:13:53.350Z,13.56
2022-11-18T22:16:22.633Z,13.56
2022-11-18T22:18:56.251Z,13.56
2022-11-18T22:21:26.594Z,13.57
2022-11-18T22:23:57.273Z,13.56
2022-11-18T22:26:23.911Z,13.66
2022-11-18T22:28:55.495Z,13.58
2022-11-18T22:31:23.660Z,13.55
2022-11-18T22:33:51.544Z,13.54
2022-11-18T22:36:19.895Z,13.53
2022-11-18T22:38:47.130Z,13.52
2022-11-18T22:41:37.803Z,13.52
2022-11-18T22:44:07.722Z,13.61
2022-11-18T22:46:39.227Z,13.54
2022-11-18T22:49:07.475Z,13.50
2022-11-18T22:51:35.033Z,13.48
2022-11-18T22:54:36.591Z,13.47
2022-11-18T22:56:48.722Z,13.47
2022-11-18T22:59:15.528Z,13.46
2022-11-18T23:01:42.302Z,13.45
2022-11-18T23:04:09.105Z,13.43
2022-11-18T23:06:35.833Z,13.43
2022-11-18T23:09:02.674Z,13.44
2022-11-18T23:11:50.165Z,13.43
2022-11-18T23:14:16.884Z,13.43
2022-11-18T23:16:43.881Z,13.42
2022-11-18T23:19:12.987Z,13.42
2022-11-18T23:21:40.185Z,13.41
2022-11-18T23:24:07.722Z,13.41
2022-11-18T23:26:34.477Z,13.40
2022-11-18T23:29:01.370Z,13.41
2022-11-18T23:31:28.090Z,13.41
2022-11-18T23:33:56.013Z,13.38
2022-11-18T23:36:24.257Z,13.37
2022-11-18T23:38:52.558Z,13.37
2022-11-18T23:41:20.138Z,13.36
2022-11-18T23:43:48.775Z,13.37
2022-11-18T23:46:17.465Z,13.34
2022-11-18T23:48:45.099Z,13.33
2022-11-18T23:51:14.687Z,13.32
2022-11-18T23:53:41.707Z,13.32
2022-11-18T23:56:12.731Z,13.31
2022-11-18T23:58:40.722Z,13.29
